Time;durP1;ratioP1;P1;durP2;ratioP2;P2;SDS_P1;SDS_P2;PMS_P1;PMS_P2;Temp;Humidity;BMP_temperature;BMP_pressure;BME280_temperature;BME280_humidity;BME280_pressure;Samples;Min_cycle;Max_cycle;Signal;HPM_P1;HPM_P2
2024/03/28 00:04:57;;;;;;;4.97;1.30;;;12.00;99.90;;;;;;6026506;23;19972;-67
2024/03/28 00:08:20;;;;;;;6.95;2.22;;;11.90;99.90;;;;;;5995126;23;20023;-67
2024/03/28 00:11:27;;;;;;;6.28;1.73;;;11.90;99.90;;;;;;5943902;23;20363;-67
2024/03/28 00:14:34;;;;;;;5.93;1.80;;;11.90;99.90;;;;;;6125006;22;20368;-66
2024/03/28 00:17:02;;;;;;;12.40;1.90;;;11.90;99.90;;;;;;6303259;22;20018;-67
2024/03/28 00:19:28;;;;;;;8.05;1.17;;;11.80;99.90;;;;;;6307625;22;20007;-66
2024/03/28 00:21:54;;;;;;;5.43;1.27;;;11.80;99.90;;;;;;6279900;22;20315;-67
2024/03/28 00:24:19;;;;;;;7.35;1.33;;;11.90;99.90;;;;;;6307219;22;19995;-68
2024/03/28 00:26:45;;;;;;;8.77;1.55;;;11.80;99.90;;;;;;6307031;22;20003;-68
2024/03/28 00:29:11;;;;;;;5.13;0.88;;;11.80;99.90;;;;;;6306948;22;20011;-67
2024/03/28 00:31:37;;;;;;;10.18;1.92;;;11.80;99.90;;;;;;6307354;22;20039;-68
2024/03/28 00:34:02;;;;;;;7.03;1.63;;;11.80;99.90;;;;;;6280017;22;20007;-68
2024/03/28 00:36:28;;;;;;;7.55;1.60;;;11.80;99.90;;;;;;6307219;22;20007;-68
2024/03/28 00:38:54;;;;;;;7.15;1.67;;;11.80;99.90;;;;;;6307106;22;19995;-67
2024/03/28 00:41:20;;;;;;;11.90;2.08;;;11.80;99.90;;;;;;6306964;22;20003;-67
2024/03/28 00:43:45;;;;;;;13.02;3.55;;;11.70;99.90;;;;;;6307013;22;19995;-68
2024/03/28 00:46:11;;;;;;;8.07;2.47;;;11.70;99.90;;;;;;6307224;22;20006;-68
2024/03/28 00:48:37;;;;;;;5.68;1.33;;;11.70;99.90;;;;;;6306970;22;20005;-66
2024/03/28 00:51:03;;;;;;;6.50;1.40;;;11.70;99.90;;;;;;6307278;22;20011;-67
2024/03/28 00:53:29;;;;;;;9.25;1.23;;;11.70;99.90;;;;;;6307040;22;20003;-67
2024/03/28 00:55:55;;;;;;;5.80;1.52;;;11.60;99.90;;;;;;6306901;22;20004;-67
2024/03/28 00:58:21;;;;;;;11.18;2.15;;;11.60;99.90;;;;;;6307067;22;20417;-67
2024/03/28 01:00:48;;;;;;;11.07;2.35;;;11.60;99.90;;;;;;6307032;22;20003;-67
2024/03/28 01:03:15;;;;;;;15.70;4.32;;;11.60;99.90;;;;;;6307117;22;20000;-67
2024/03/28 01:05:41;;;;;;;15.23;3.47;;;11.60;99.90;;;;;;6318347;22;20459;-67
2024/03/28 01:08:07;;;;;;;8.30;3.10;;;11.60;99.90;;;;;;6337913;22;20424;-67
2024/03/28 01:10:35;;;;;;;10.10;2.25;;;11.60;99.90;;;;;;6338684;22;20045;-68
2024/03/28 01:13:01;;;;;;;6.32;1.20;;;11.50;99.90;;;;;;6338871;22;20002;-68
2024/03/28 01:15:27;;;;;;;7.88;1.05;;;11.50;99.90;;;;;;6339235;22;19999;-67
2024/03/28 01:17:53;;;;;;;4.57;1.00;;;11.50;99.90;;;;;;6338764;22;19995;-67
2024/03/28 01:20:19;;;;;;;9.18;1.23;;;11.50;99.90;;;;;;6338732;22;20071;-67
2024/03/28 01:38:12;;;;;;;4.82;1.10;;;11.40;99.90;;;;;;6012781;23;20013;-67
2024/03/28 01:41:13;;;;;;;4.55;0.88;;;11.40;99.90;;;;;;6066799;23;20011;-67
2024/03/28 01:44:44;;;;;;;7.80;1.17;;;11.40;99.90;;;;;;6024865;23;20015;-67
2024/03/28 01:47:47;;;;;;;9.35;1.15;;;11.40;99.90;;;;;;6022796;23;20093;-67
2024/03/28 01:50:14;;;;;;;8.38;1.40;;;11.40;99.90;;;;;;6024083;23;20024;-66
2024/03/28 01:53:13;;;;;;;;;;;;;;;;;;;;;
2024/03/28 01:55:40;;;;;;;5.88;1.25;;;11.30;99.90;;;;;;6258932;22;20446;-68
2024/03/28 01:58:07;;;;;;;7.70;1.20;;;11.30;99.90;;;;;;6339541;22;20010;-69
2024/03/28 02:00:33;;;;;;;6.93;1.13;;;11.30;99.90;;;;;;6336715;22;20332;-68
2024/03/28 02:02:59;;;;;;;6.78;1.13;;;11.40;99.90;;;;;;6336869;22;20011;-67
2024/03/28 02:05:25;;;;;;;8.02;1.20;;;11.30;99.90;;;;;;6338171;22;20464;-73
2024/03/28 02:07:53;;;;;;;4.85;0.90;;;11.30;99.90;;;;;;6339879;22;20127;-67
2024/03/28 02:10:21;;;;;;;10.50;1.38;;;11.30;99.90;;;;;;6339914;22;20314;-68
2024/03/28 02:12:47;;;;;;;4.88;0.93;;;11.30;99.90;;;;;;6339483;22;20066;-68
2024/03/28 02:15:13;;;;;;;6.65;0.98;;;11.30;99.90;;;;;;6339773;22;20417;-68
2024/03/28 02:17:49;;;;;;;7.43;0.98;;;11.30;99.90;;;;;;6339395;22;20009;-68
2024/03/28 02:20:16;;;;;;;5.75;1.00;;;11.30;99.90;;;;;;6339355;22;20421;-66
2024/03/28 02:22:41;;;;;;;3.15;1.08;;;11.30;99.90;;;;;;6339553;22;20019;-68
2024/03/28 02:25:08;;;;;;;6.80;1.00;;;11.30;99.90;;;;;;6339729;22;20124;-68
2024/03/28 02:27:35;;;;;;;4.13;1.13;;;11.30;99.90;;;;;;6339174;22;20440;-69
2024/03/28 02:30:11;;;;;;;3.80;1.33;;;11.30;99.90;;;;;;6339710;22;20318;-68
2024/03/28 02:32:37;;;;;;;6.80;2.00;;;11.30;99.90;;;;;;6339265;22;20007;-69
2024/03/28 02:35:05;;;;;;;7.63;1.30;;;11.30;99.90;;;;;;6339338;22;20002;-68
2024/03/28 02:37:32;;;;;;;6.38;1.45;;;11.30;99.90;;;;;;6311374;22;20424;-68
2024/03/28 02:39:58;;;;;;;6.63;1.75;;;11.30;99.90;;;;;;6339290;22;20007;-68
2024/03/28 02:42:24;;;;;;;6.07;1.42;;;11.30;99.90;;;;;;6339590;22;20002;-68
2024/03/28 02:44:50;;;;;;;4.72;1.20;;;11.30;99.90;;;;;;6339421;22;20003;-68
2024/03/28 02:47:16;;;;;;;9.40;1.70;;;11.30;99.90;;;;;;6339737;22;20294;-67
2024/03/28 02:49:42;;;;;;;6.85;1.50;;;11.30;99.90;;;;;;6339546;22;20011;-67
2024/03/28 02:52:08;;;;;;;7.35;1.13;;;11.30;99.90;;;;;;6339483;22;20429;-67
2024/03/28 02:54:34;;;;;;;5.93;1.10;;;11.30;99.90;;;;;;6339873;22;20463;-68
2024/03/28 02:57:04;;;;;;;7.95;2.60;;;11.30;99.90;;;;;;6340188;22;20069;-67
2024/03/28 02:59:31;;;;;;;5.50;1.05;;;11.30;99.90;;;;;;6340251;22;20006;-67
2024/03/28 03:01:59;;;;;;;9.48;1.30;;;11.30;99.90;;;;;;6340033;22;19999;-67
2024/03/28 03:34:37;;;;;;;4.72;1.17;;;11.20;99.90;;;;;;6174631;22;20025;-67
2024/03/28 03:37:13;;;;;;;8.65;1.67;;;11.20;99.90;;;;;;6308124;22;20003;-69
2024/03/28 03:39:39;;;;;;;4.57;1.10;;;11.20;99.90;;;;;;6307970;22;20034;-68
2024/03/28 03:42:05;;;;;;;3.92;1.15;;;11.20;99.90;;;;;;6307960;22;20006;-68
2024/03/28 03:44:31;;;;;;;4.35;0.85;;;11.20;99.90;;;;;;6307901;22;19999;-67
2024/03/28 03:46:57;;;;;;;7.82;1.45;;;11.20;99.90;;;;;;6307615;22;20074;-68
2024/03/28 03:49:22;;;;;;;13.43;1.33;;;11.20;99.90;;;;;;6307345;22;20064;-67
2024/03/28 03:51:49;;;;;;;7.80;1.30;;;11.20;99.90;;;;;;6306945;22;20064;-67
2024/03/28 03:54:14;;;;;;;11.73;1.30;;;11.20;99.90;;;;;;6307461;22;20006;-68
2024/03/28 03:56:40;;;;;;;5.55;1.10;;;11.20;99.90;;;;;;6307805;22;20445;-68
2024/03/28 03:59:06;;;;;;;6.55;1.25;;;11.20;99.90;;;;;;6307657;22;20422;-68
2024/03/28 04:01:32;;;;;;;7.40;1.33;;;11.20;99.90;;;;;;6307383;22;20436;-67
2024/03/28 04:03:58;;;;;;;12.48;1.67;;;11.20;99.90;;;;;;6307529;22;20067;-68
2024/03/28 04:06:24;;;;;;;6.22;1.20;;;11.10;99.90;;;;;;6308393;22;19999;-68
2024/03/28 04:08:50;;;;;;;11.48;4.90;;;11.10;99.90;;;;;;6339101;22;19998;-68
2024/03/28 04:11:16;;;;;;;11.00;4.63;;;11.10;99.90;;;;;;6338845;22;20083;-67
2024/03/28 04:13:42;;;;;;;10.70;1.83;;;11.10;99.90;;;;;;6338919;22;19999;-67
2024/03/28 04:16:08;;;;;;;4.93;1.40;;;11.10;99.90;;;;;;6339127;22;20003;-67
2024/03/28 04:18:34;;;;;;;4.22;0.90;;;11.10;99.90;;;;;;6339088;22;19999;-67
2024/03/28 04:21:00;;;;;;;4.53;1.10;;;11.10;99.90;;;;;;6338933;22;20009;-68
2024/03/28 04:23:26;;;;;;;6.38;1.50;;;11.10;99.90;;;;;;6338857;22;20003;-67
2024/03/28 04:25:59;;;;;;;6.30;1.70;;;11.10;99.90;;;;;;6338968;22;19995;-67
2024/03/28 04:28:25;;;;;;;7.20;1.38;;;11.10;99.90;;;;;;6338877;22;19998;-68
2024/03/28 04:30:51;;;;;;;4.88;0.90;;;11.10;99.90;;;;;;6310970;22;20499;-67
2024/03/28 04:33:18;;;;;;;6.70;1.40;;;11.10;99.90;;;;;;6339325;22;19995;-68
2024/03/28 04:35:46;;;;;;;16.20;1.83;;;11.10;99.90;;;;;;6339492;22;20002;-68
2024/03/28 04:38:12;;;;;;;7.25;1.30;;;11.10;99.90;;;;;;6339508;22;19999;-68
2024/03/28 04:40:38;;;;;;;10.93;2.15;;;11.10;99.90;;;;;;6339292;22;19999;-67
2024/03/28 04:43:04;;;;;;;10.75;1.58;;;11.10;99.90;;;;;;6339232;22;20048;-67
2024/03/28 04:56:03;;;;;;;6.13;0.98;;;11.10;99.90;;;;;;6153313;23;20013;-68
2024/03/28 05:02:36;;;;;;;6.13;1.60;;;11.10;99.90;;;;;;6036898;23;20448;-67
2024/03/28 05:05:04;;;;;;;3.90;1.10;;;11.10;99.90;;;;;;6036492;23;20034;-67
2024/03/28 05:10:58;;;;;;;7.45;1.70;;;11.00;99.90;;;;;;6092624;23;20025;-67
2024/03/28 05:13:24;;;;;;;5.57;1.10;;;11.00;99.90;;;;;;6175142;23;20005;-67
2024/03/28 05:15:50;;;;;;;5.20;1.83;;;11.00;99.90;;;;;;6248095;22;20382;-68
2024/03/28 05:18:16;;;;;;;5.72;1.45;;;11.00;99.90;;;;;;6307241;22;20006;-68
2024/03/28 05:20:42;;;;;;;6.32;1.50;;;11.00;99.90;;;;;;6307005;22;20023;-68
2024/03/28 05:23:08;;;;;;;10.43;1.60;;;11.10;99.90;;;;;;6306641;22;20354;-68
2024/03/28 05:25:34;;;;;;;5.07;1.40;;;11.10;99.90;;;;;;6307401;22;20011;-68
2024/03/28 05:28:00;;;;;;;9.13;1.60;;;11.00;99.90;;;;;;6307035;22;20003;-67
2024/03/28 05:30:27;;;;;;;4.40;1.25;;;11.00;99.90;;;;;;6306723;22;20686;-68
2024/03/28 05:32:53;;;;;;;9.45;1.50;;;11.00;99.90;;;;;;6279345;22;20004;-68
2024/03/28 05:35:19;;;;;;;7.50;1.45;;;11.10;99.90;;;;;;6306409;22;20094;-70
2024/03/28 05:37:44;;;;;;;11.23;1.60;;;11.00;99.90;;;;;;6306966;22;20038;-68
2024/03/28 05:40:10;;;;;;;5.10;1.35;;;11.00;99.90;;;;;;6307094;22;20003;-67
2024/03/28 05:42:36;;;;;;;11.18;1.80;;;11.00;99.90;;;;;;6306878;22;20020;-68
2024/03/28 05:45:02;;;;;;;8.13;1.55;;;11.00;99.90;;;;;;6307014;22;20333;-82
2024/03/28 05:47:28;;;;;;;10.15;1.67;;;11.10;99.90;;;;;;6306847;22;20000;-75
2024/03/28 05:49:53;;;;;;;6.68;1.65;;;11.10;99.90;;;;;;6306782;22;20011;-68
2024/03/28 05:52:19;;;;;;;7.90;1.85;;;11.10;99.90;;;;;;6306772;22;19999;-68
2024/03/28 05:54:45;;;;;;;6.65;2.05;;;11.10;99.90;;;;;;6306698;22;20005;-68
2024/03/28 05:57:11;;;;;;;8.50;2.20;;;11.10;99.90;;;;;;6306592;22;19999;-69
2024/03/28 05:59:36;;;;;;;7.93;1.98;;;11.10;99.90;;;;;;6306945;22;20078;-70
2024/03/28 06:02:02;;;;;;;8.73;2.88;;;11.10;99.90;;;;;;6306451;22;20031;-68
2024/03/28 06:04:28;;;;;;;10.85;3.22;;;11.10;99.90;;;;;;6279266;22;20005;-68
2024/03/28 06:06:54;;;;;;;14.50;2.80;;;11.10;99.90;;;;;;6313722;22;20007;-69
2024/03/28 06:09:20;;;;;;;14.27;2.90;;;11.20;99.90;;;;;;6337630;22;19999;-68
2024/03/28 06:11:46;;;;;;;11.45;3.15;;;11.20;99.90;;;;;;6337950;22;20328;-67
2024/03/28 06:14:12;;;;;;;7.57;2.88;;;11.20;99.90;;;;;;6338045;22;20354;-68
2024/03/28 06:16:37;;;;;;;13.98;3.08;;;11.20;99.90;;;;;;6339679;22;20003;-86
2024/03/28 06:19:04;;;;;;;9.02;3.22;;;11.20;99.90;;;;;;6340434;22;20318;-87
2024/03/28 06:21:30;;;;;;;13.25;2.90;;;11.30;99.90;;;;;;6341237;22;20010;-87
2024/03/28 06:23:57;;;;;;;6.57;2.08;;;11.30;99.90;;;;;;6340956;22;20002;-87
2024/03/28 06:34:14;;;;;;;5.95;1.83;;;11.40;99.90;;;;;;6038579;23;20456;-86
2024/03/28 06:40:16;;;;;;;9.63;2.42;;;11.40;99.90;;;;;;5995789;23;20054;-85
2024/03/28 06:43:09;;;;;;;13.43;1.92;;;11.40;99.90;;;;;;6031301;23;20006;-77
2024/03/28 06:45:46;;;;;;;;;;;11.50;99.90;;;;;;6095997;23;20011;-87
2024/03/28 06:51:59;;;;;;;11.48;1.88;;;11.50;99.90;;;;;;6196857;23;20070;-88
2024/03/28 06:53:58;;;;;;;9.93;1.58;;;11.50;99.90;;;;;;6201421;23;20012;-86
2024/03/28 06:56:24;;;;;;;9.07;1.52;;;11.60;99.90;;;;;;6293879;22;20085;-86
2024/03/28 06:58:51;;;;;;;9.25;2.15;;;11.60;99.90;;;;;;6340152;22;20368;-82
2024/03/28 07:01:17;;;;;;;7.38;1.88;;;11.70;99.90;;;;;;6340117;22;20318;-85
2024/03/28 07:03:42;;;;;;;10.15;1.85;;;11.70;99.90;;;;;;6339426;22;20002;-86
2024/03/28 07:06:10;;;;;;;12.10;1.92;;;11.80;99.90;;;;;;6339587;22;20014;-86
2024/03/28 07:08:36;;;;;;;9.75;1.83;;;11.80;99.90;;;;;;6338565;22;20333;-84
2024/03/28 07:11:02;;;;;;;6.57;1.63;;;11.90;99.90;;;;;;6339056;22;20036;-86
2024/03/28 07:13:28;;;;;;;9.40;1.27;;;11.90;99.90;;;;;;6339715;22;20086;-86
2024/03/28 07:15:53;;;;;;;15.05;1.80;;;11.90;99.90;;;;;;6339425;22;20034;-85
2024/03/28 07:18:19;;;;;;;10.93;1.80;;;11.90;99.90;;;;;;6338702;22;20077;-83
2024/03/28 07:20:45;;;;;;;9.50;2.20;;;11.90;99.90;;;;;;6338383;22;19999;-84
2024/03/28 07:23:11;;;;;;;9.68;1.73;;;12.00;99.90;;;;;;6338341;22;19995;-85
2024/03/28 07:25:36;;;;;;;8.52;1.63;;;12.00;99.90;;;;;;6338728;22;20003;-84
2024/03/28 07:28:02;;;;;;;8.95;1.30;;;11.90;99.90;;;;;;6338469;22;19995;-84
2024/03/28 07:30:28;;;;;;;7.38;1.50;;;12.00;99.90;;;;;;6338472;22;20045;-83
2024/03/28 07:32:54;;;;;;;6.65;1.52;;;12.00;99.90;;;;;;6338988;22;20084;-67
2024/03/28 07:35:19;;;;;;;8.23;1.55;;;12.00;99.90;;;;;;6338550;22;20007;-67
2024/03/28 07:37:45;;;;;;;7.45;2.15;;;12.00;99.90;;;;;;6338142;22;20026;-68
2024/03/28 07:40:11;;;;;;;7.03;1.13;;;12.00;99.90;;;;;;6338177;22;20003;-68
2024/03/28 07:42:37;;;;;;;7.38;1.00;;;12.00;99.90;;;;;;6338798;22;20329;-68
2024/03/28 07:45:03;;;;;;;6.22;1.48;;;12.00;99.90;;;;;;6338906;22;19999;-68
2024/03/28 07:47:29;;;;;;;10.10;1.20;;;12.10;99.90;;;;;;6338825;22;20417;-68
2024/03/28 07:49:55;;;;;;;9.43;1.85;;;12.00;99.90;;;;;;6338724;22;20015;-70
2024/03/28 07:52:21;;;;;;;8.90;1.58;;;12.10;99.90;;;;;;6338508;22;20063;-75
2024/03/28 07:54:48;;;;;;;9.68;1.35;;;12.10;99.90;;;;;;6311782;22;20006;-84
2024/03/28 07:57:15;;;;;;;8.90;1.10;;;12.10;99.90;;;;;;6339367;22;20006;-80
2024/03/28 07:59:41;;;;;;;8.60;1.45;;;12.20;99.90;;;;;;6339643;22;20006;-84
2024/03/28 08:02:07;;;;;;;8.63;1.17;;;12.10;99.90;;;;;;6339463;22;20006;-84
2024/03/28 08:05:22;;;;;;;8.18;1.63;;;12.10;99.90;;;;;;6339548;22;19998;-84
2024/03/28 08:08:11;;;;;;;7.88;1.60;;;12.20;99.90;;;;;;6283015;22;20018;-84
2024/03/28 08:10:49;;;;;;;7.50;1.42;;;12.20;99.90;;;;;;6337745;22;20068;-84
2024/03/28 08:14:33;;;;;;;;;;;;;;;;;;;;;
2024/03/28 08:24:55;;;;;;;11.20;1.67;;;12.20;99.90;;;;;;6094293;23;20010;-87
2024/03/28 08:28:01;;;;;;;12.10;2.20;;;12.10;99.90;;;;;;6059716;23;20014;-88
2024/03/28 08:30:26;;;;;;;14.80;2.17;;;12.00;99.90;;;;;;6159811;23;20655;-83
2024/03/28 08:32:55;;;;;;;15.75;1.65;;;12.00;99.90;;;;;;6293713;22;20383;-84
2024/03/28 08:35:22;;;;;;;6.05;1.27;;;12.00;99.90;;;;;;6310510;22;20314;-86
2024/03/28 08:37:48;;;;;;;12.93;1.80;;;12.00;99.90;;;;;;6338293;22;19999;-82
2024/03/28 08:40:15;;;;;;;8.88;1.38;;;12.00;99.90;;;;;;6338807;22;20002;-85
2024/03/28 08:42:43;;;;;;;9.77;1.77;;;12.00;99.90;;;;;;6338853;22;20003;-87
2024/03/28 08:45:11;;;;;;;10.20;1.75;;;12.00;99.90;;;;;;6310348;22;20381;-80
2024/03/28 08:47:37;;;;;;;10.10;1.98;;;12.00;99.90;;;;;;6338208;22;20026;-82
2024/03/28 08:50:04;;;;;;;11.73;2.20;;;12.00;99.90;;;;;;6337035;22;20017;-81
2024/03/28 08:52:30;;;;;;;14.70;2.25;;;12.00;99.90;;;;;;6336131;22;20395;-82
2024/03/28 08:54:56;;;;;;;15.10;2.53;;;12.00;99.90;;;;;;6336097;22;20417;-83
2024/03/28 08:57:24;;;;;;;17.38;2.88;;;12.00;99.90;;;;;;6336353;22;20010;-80
2024/03/28 08:59:51;;;;;;;15.23;3.20;;;12.10;99.90;;;;;;6336610;22;20085;-83
2024/03/28 09:02:21;;;;;;;10.75;2.25;;;12.10;99.90;;;;;;6335868;22;19998;-82
2024/03/28 09:04:47;;;;;;;12.88;2.55;;;12.10;99.90;;;;;;6336829;22;20013;-86
2024/03/28 09:07:18;;;;;;;14.98;2.30;;;12.10;99.90;;;;;;6310304;22;20313;-84
2024/03/28 09:09:44;;;;;;;15.32;2.55;;;12.10;99.90;;;;;;6336909;22;20437;-80
2024/03/28 09:12:10;;;;;;;16.20;2.55;;;12.00;99.90;;;;;;6337973;22;20006;-83
2024/03/28 09:14:37;;;;;;;21.27;4.00;;;12.00;99.90;;;;;;6338533;22;20003;-82
2024/03/28 09:17:03;;;;;;;20.10;3.30;;;12.00;99.90;;;;;;6338226;22;19998;-81
2024/03/28 09:19:29;;;;;;;12.77;2.40;;;12.00;99.90;;;;;;6337943;22;20003;-79
2024/03/28 09:21:55;;;;;;;14.95;2.63;;;12.10;99.90;;;;;;6338022;22;20003;-81
2024/03/28 09:24:25;;;;;;;23.77;4.80;;;12.00;99.90;;;;;;6337934;22;19999;-81
2024/03/28 09:26:52;;;;;;;18.77;2.42;;;12.00;99.90;;;;;;6337912;22;20039;-79
2024/03/28 09:29:20;;;;;;;13.40;2.30;;;12.00;99.90;;;;;;6337555;22;20023;-81
2024/03/28 09:31:50;;;;;;;15.75;2.22;;;12.00;99.90;;;;;;6336964;22;19999;-82
2024/03/28 09:34:16;;;;;;;19.52;3.15;;;12.00;99.90;;;;;;6338773;22;20321;-86
2024/03/28 09:36:42;;;;;;;5.13;1.25;;;12.00;99.90;;;;;;6339348;22;20108;-84
2024/03/28 09:39:14;;;;;;;6.72;1.08;;;12.00;99.90;;;;;;6339582;22;20049;-87
2024/03/28 09:41:46;;;;;;;9.35;1.40;;;12.00;99.90;;;;;;6338457;22;20007;-78
2024/03/28 09:44:22;;;;;;;8.82;2.38;;;12.00;99.90;;;;;;6337713;22;20384;-74
2024/03/28 09:50:15;;;;;;;11.10;1.55;;;11.90;99.90;;;;;;6286050;22;20023;-78
2024/03/28 09:53:04;;;;;;;10.43;1.58;;;11.80;99.90;;;;;;6184117;23;20009;-71
2024/03/28 10:02:00;;;;;;;7.30;1.33;;;11.70;99.90;;;;;;5896136;24;20013;-68
2024/03/28 10:05:29;;;;;;;6.25;1.17;;;11.70;99.90;;;;;;6113108;23;20076;-67
2024/03/28 10:08:15;;;;;;;8.30;1.85;;;11.70;99.90;;;;;;6007281;23;20114;-68
2024/03/28 10:10:42;;;;;;;10.10;1.50;;;11.70;99.90;;;;;;6042668;23;20141;-68
2024/03/28 10:13:10;;;;;;;11.40;1.85;;;11.70;99.90;;;;;;6238870;22;20079;-83
2024/03/28 10:15:37;;;;;;;15.02;2.17;;;11.70;99.90;;;;;;6338211;22;20045;-84
2024/03/28 10:18:05;;;;;;;5.40;1.38;;;11.70;99.90;;;;;;6339198;22;20325;-71
2024/03/28 10:20:32;;;;;;;9.65;1.77;;;11.70;99.90;;;;;;6338452;22;20002;-78
2024/03/28 10:23:01;;;;;;;8.82;1.33;;;11.70;99.90;;;;;;6339653;22;20328;-78
2024/03/28 10:25:27;;;;;;;11.68;1.77;;;11.70;99.90;;;;;;6339504;22;19995;-78
2024/03/28 10:28:03;;;;;;;10.05;1.20;;;11.70;99.90;;;;;;6339872;22;20060;-81
2024/03/28 10:30:29;;;;;;;9.23;1.52;;;11.70;99.90;;;;;;6339570;22;20392;-79
2024/03/28 10:33:04;;;;;;;15.50;2.28;;;11.70;99.90;;;;;;6339958;22;20003;-77
2024/03/28 10:35:35;;;;;;;7.32;1.42;;;11.70;99.90;;;;;;6339100;22;20400;-71
2024/03/28 10:38:04;;;;;;;12.07;2.22;;;11.70;99.90;;;;;;6337408;22;20002;-77
2024/03/28 10:40:33;;;;;;;9.73;1.52;;;11.70;99.90;;;;;;6336977;22;20443;-68
2024/03/28 10:43:04;;;;;;;10.23;1.73;;;11.70;99.90;;;;;;6336873;22;20432;-70
2024/03/28 10:45:31;;;;;;;7.88;1.27;;;11.60;99.90;;;;;;6337283;22;20006;-71
2024/03/28 10:47:59;;;;;;;9.38;1.77;;;11.60;99.90;;;;;;6337503;22;20439;-77
2024/03/28 10:50:36;;;;;;;7.65;1.42;;;11.60;99.90;;;;;;6337520;22;20007;-66
2024/03/28 10:53:07;;;;;;;8.63;1.45;;;11.60;99.90;;;;;;6338663;22;20023;-67
2024/03/28 10:55:37;;;;;;;6.25;1.50;;;11.60;99.90;;;;;;6339346;22;20443;-67
2024/03/28 10:58:07;;;;;;;10.45;1.65;;;11.50;99.90;;;;;;6337586;22;20014;-84
2024/03/28 11:00:33;;;;;;;8.65;1.85;;;11.50;99.90;;;;;;6337727;22;20471;-77
2024/03/28 11:03:01;;;;;;;13.57;1.60;;;11.50;99.90;;;;;;6310932;22;20033;-73
2024/03/28 11:05:30;;;;;;;8.27;1.35;;;11.50;99.90;;;;;;6339057;22;20107;-73
2024/03/28 11:07:56;;;;;;;6.60;1.25;;;11.50;99.90;;;;;;6338804;22;20448;-72
2024/03/28 11:10:25;;;;;;;3.63;1.20;;;11.50;99.90;;;;;;6339253;22;20065;-85
2024/03/28 11:12:53;;;;;;;5.03;1.20;;;11.50;99.90;;;;;;6340329;22;19999;-79
2024/03/28 11:15:22;;;;;;;12.48;1.90;;;11.50;99.90;;;;;;6339893;22;20010;-86
2024/03/28 11:17:48;;;;;;;8.52;1.50;;;11.50;99.90;;;;;;6340057;22;20298;-84
2024/03/28 11:20:18;;;;;;;7.78;1.77;;;11.50;99.90;;;;;;6340126;22;19999;-85
2024/03/28 11:22:56;;;;;;;6.10;1.60;;;11.50;99.90;;;;;;6339554;22;20003;-75
2024/03/28 11:25:47;;;;;;;9.43;1.60;;;11.50;99.90;;;;;;6309745;22;20019;-85
2024/03/28 11:32:11;;;;;;;8.02;1.58;;;11.50;99.90;;;;;;6211715;23;20013;-85
2024/03/28 11:36:07;;;;;;;6.53;1.65;;;11.50;99.90;;;;;;6212728;23;20007;-85
2024/03/28 11:38:37;;;;;;;5.90;1.33;;;11.40;99.90;;;;;;6192158;23;20056;-85
2024/03/28 11:45:27;;;;;;;5.68;1.23;;;11.40;99.90;;;;;;6259230;22;20006;-82
2024/03/28 11:48:01;;;;;;;5.68;1.40;;;11.40;99.90;;;;;;6339310;22;20003;-87
2024/03/28 11:50:28;;;;;;;3.95;1.23;;;11.30;99.90;;;;;;6338459;22;20011;-84
2024/03/28 11:52:56;;;;;;;6.85;1.30;;;11.30;99.90;;;;;;6338887;22;20022;-84
2024/03/28 11:55:24;;;;;;;5.60;1.20;;;11.30;99.90;;;;;;6339139;22;20060;-86
2024/03/28 11:57:50;;;;;;;8.23;1.73;;;11.30;99.90;;;;;;6338804;22;20029;-87
2024/03/28 12:00:19;;;;;;;4.40;1.30;;;11.30;99.90;;;;;;6338615;22;20387;-83
2024/03/28 12:03:05;;;;;;;8.10;1.38;;;11.30;99.90;;;;;;6338828;22;20007;-87
2024/03/28 12:05:32;;;;;;;5.35;1.95;;;11.30;99.90;;;;;;6338788;22;20007;-87
2024/03/28 12:07:58;;;;;;;2.63;1.10;;;11.30;99.90;;;;;;6339624;22;20405;-79
2024/03/28 12:10:24;;;;;;;5.53;1.30;;;11.30;99.90;;;;;;6338708;22;20003;-90
2024/03/28 12:12:51;;;;;;;5.72;1.40;;;11.30;99.90;;;;;;6338764;22;19998;-85
2024/03/28 12:15:17;;;;;;;4.55;1.30;;;11.30;99.90;;;;;;6338647;22;20003;-88
2024/03/28 12:17:43;;;;;;;6.85;1.58;;;11.30;99.90;;;;;;6339144;22;20089;-83
2024/03/28 12:20:11;;;;;;;4.50;1.70;;;11.30;99.90;;;;;;6339014;22;20490;-86
2024/03/28 12:22:38;;;;;;;5.47;1.40;;;11.30;99.90;;;;;;6339158;22;20006;-88
2024/03/28 12:25:11;;;;;;;3.10;1.58;;;11.30;99.90;;;;;;6339320;22;20364;-90
2024/03/28 12:27:40;;;;;;;4.72;1.50;;;11.20;99.90;;;;;;6311907;22;20011;-89
2024/03/28 12:30:13;;;;;;;3.95;1.80;;;11.30;99.90;;;;;;6339317;22;20010;-85
2024/03/28 12:32:41;;;;;;;5.85;1.55;;;11.20;99.90;;;;;;6339452;22;20002;-89
2024/03/28 12:35:08;;;;;;;7.82;1.92;;;11.20;99.90;;;;;;6339315;22;20396;-88
2024/03/28 12:37:35;;;;;;;5.55;1.10;;;11.20;99.90;;;;;;6339132;22;20005;-89
2024/03/28 12:40:06;;;;;;;3.35;0.95;;;11.20;99.90;;;;;;6339262;22;20147;-90
2024/03/28 12:42:32;;;;;;;6.00;1.10;;;11.20;99.90;;;;;;6338879;22;19999;-86
2024/03/28 12:45:16;;;;;;;3.22;0.90;;;11.10;99.90;;;;;;6339209;22;20026;-90
2024/03/28 12:47:46;;;;;;;3.72;1.10;;;11.10;99.90;;;;;;6311067;22;20018;-91
2024/03/28 12:50:17;;;;;;;4.97;1.60;;;11.10;99.90;;;;;;6338530;22;20062;-90
2024/03/28 12:52:47;;;;;;;4.47;1.90;;;11.10;99.90;;;;;;6339533;22;20417;-83
2024/03/28 12:55:13;;;;;;;5.57;1.75;;;11.10;99.90;;;;;;6339531;22;20107;-86
2024/03/28 12:57:40;;;;;;;5.05;2.00;;;11.10;99.90;;;;;;6339030;22;19995;-84
2024/03/28 13:00:08;;;;;;;7.55;2.42;;;11.00;99.90;;;;;;6339004;22;20002;-83
2024/03/28 13:03:22;;;;;;;6.32;2.40;;;11.00;99.90;;;;;;6339339;22;20013;-85
2024/03/28 13:06:44;;;;;;;4.55;1.77;;;11.00;99.90;;;;;;6183348;23;20013;-88
2024/03/28 13:09:42;;;;;;;9.68;2.75;;;11.00;99.90;;;;;;6093448;23;20353;-85
2024/03/28 13:12:53;;;;;;;4.85;2.30;;;11.00;99.90;;;;;;5980192;24;20027;-81
2024/03/28 13:23:30;;;;;;;4.93;2.13;;;11.00;99.90;;;;;;5869928;24;20515;-81
2024/03/28 13:26:01;;;;;;;5.68;1.80;;;11.00;99.90;;;;;;5878068;24;20086;-80
2024/03/28 13:28:27;;;;;;;4.38;1.73;;;11.10;99.90;;;;;;5988544;23;20582;-79
2024/03/28 13:30:54;;;;;;;7.00;2.08;;;11.00;99.90;;;;;;6198809;23;20367;-80
2024/03/28 13:33:20;;;;;;;8.90;2.45;;;11.00;99.90;;;;;;6327268;22;20367;-85
2024/03/28 13:35:46;;;;;;;4.43;1.65;;;11.00;99.90;;;;;;6340549;22;20039;-91
2024/03/28 13:38:12;;;;;;;5.53;1.85;;;11.10;99.90;;;;;;6341702;22;20064;-90
2024/03/28 13:40:38;;;;;;;3.20;1.80;;;11.10;99.90;;;;;;6313280;22;20328;-87
2024/03/28 13:43:04;;;;;;;3.90;1.75;;;11.10;99.90;;;;;;6340586;22;19999;-84
2024/03/28 13:45:29;;;;;;;3.00;1.50;;;11.10;99.90;;;;;;6340347;22;20051;-82
2024/03/28 13:47:55;;;;;;;3.25;1.30;;;11.10;99.90;;;;;;6340430;22;19999;-82
2024/03/28 13:50:22;;;;;;;2.70;1.45;;;11.10;99.90;;;;;;6340079;22;20448;-83
2024/03/28 13:52:47;;;;;;;5.22;1.90;;;11.10;99.90;;;;;;6340362;22;20429;-84
2024/03/28 13:55:13;;;;;;;3.33;1.42;;;11.20;99.90;;;;;;6339946;22;19998;-91
2024/03/28 13:57:39;;;;;;;5.10;1.67;;;11.20;99.90;;;;;;6340219;22;20034;-86
2024/03/28 14:00:06;;;;;;;2.22;1.40;;;11.30;99.90;;;;;;6340043;22;19999;-84
2024/03/28 14:02:32;;;;;;;3.22;1.40;;;11.20;99.90;;;;;;6340084;22;20007;-82
2024/03/28 14:04:58;;;;;;;3.08;1.58;;;11.20;99.90;;;;;;6340032;22;20059;-85
2024/03/28 14:07:24;;;;;;;5.00;1.80;;;11.20;99.90;;;;;;6340703;22;20040;-76
2024/03/28 14:09:49;;;;;;;6.00;1.80;;;11.20;99.90;;;;;;6340058;22;19999;-83
2024/03/28 14:12:15;;;;;;;3.17;1.88;;;11.20;99.90;;;;;;6339811;22;20078;-85
2024/03/28 14:14:41;;;;;;;3.78;2.22;;;11.10;99.90;;;;;;6339779;22;20006;-81
2024/03/28 14:17:07;;;;;;;5.03;2.42;;;11.10;99.90;;;;;;6339279;22;20002;-87
2024/03/28 14:19:33;;;;;;;3.47;1.92;;;11.00;99.90;;;;;;6339685;22;20030;-82
2024/03/28 14:21:58;;;;;;;6.75;3.72;;;11.00;99.90;;;;;;6339864;22;20010;-81
2024/03/28 14:24:24;;;;;;;8.75;4.35;;;10.90;99.90;;;;;;6339770;22;19998;-84
2024/03/28 14:26:51;;;;;;;6.47;3.55;;;10.90;99.90;;;;;;6341422;22;20003;-91
2024/03/28 14:29:16;;;;;;;6.97;3.30;;;11.00;99.90;;;;;;6346421;22;20310;-91
2024/03/28 14:31:42;;;;;;;6.15;2.90;;;11.00;99.90;;;;;;6345340;22;20014;-92
2024/03/28 14:34:08;;;;;;;6.43;2.30;;;10.90;99.90;;;;;;6341464;22;19999;-89
2024/03/28 14:36:34;;;;;;;6.03;2.95;;;11.00;99.90;;;;;;6311207;22;19999;-84
2024/03/28 14:46:58;;;;;;;7.68;2.83;;;10.90;99.90;;;;;;6125450;23;20025;-87
2024/03/28 14:50:12;;;;;;;4.78;2.92;;;10.90;99.90;;;;;;6100284;23;20010;-85
2024/03/28 14:53:10;;;;;;;6.35;3.60;;;10.90;99.90;;;;;;6125691;23;20002;-89
2024/03/28 14:58:55;;;;;;;7.55;3.00;;;10.90;99.90;;;;;;6036894;23;20017;-85
2024/03/28 15:01:41;;;;;;;6.32;3.05;;;10.90;99.90;;;;;;6088388;23;20038;-85
2024/03/28 15:04:43;;;;;;;4.95;2.95;;;11.00;99.90;;;;;;6097422;23;20369;-85
2024/03/28 15:07:10;;;;;;;7.45;4.07;;;11.00;99.90;;;;;;6107414;23;20100;-85
2024/03/28 15:09:35;;;;;;;4.55;3.05;;;11.00;99.90;;;;;;6237225;22;20370;-85
2024/03/28 15:12:01;;;;;;;5.70;3.70;;;11.00;99.90;;;;;;6339643;22;20023;-80